sensor_id;sensor_type;location;lat;lon;timestamp;pressure;altitude;pressure_sealevel;temperature;humidity
84639;BME280;74869;51.924;5.712;2024-03-08T00:00:15;101949.97;;;2.93;81.09
84639;BME280;74869;51.924;5.712;2024-03-08T00:02:44;101938.13;;;2.89;81.68
84639;BME280;74869;51.924;5.712;2024-03-08T00:05:10;101928.94;;;2.85;81.75
84639;BME280;74869;51.924;5.712;2024-03-08T00:07:36;101917.69;;;2.76;82.07
84639;BME280;74869;51.924;5.712;2024-03-08T00:10:10;101915.66;;;2.72;81.78
84639;BME280;74869;51.924;5.712;2024-03-08T00:12:37;101905.03;;;2.65;81.84
84639;BME280;74869;51.924;5.712;2024-03-08T00:15:02;101891.38;;;2.62;81.59
84639;BME280;74869;51.924;5.712;2024-03-08T00:17:28;101907.50;;;2.67;81.34
84639;BME280;74869;51.924;5.712;2024-03-08T00:19:54;101925.63;;;2.70;82.13
84639;BME280;74869;51.924;5.712;2024-03-08T00:22:19;101934.41;;;2.70;81.31
84639;BME280;74869;51.924;5.712;2024-03-08T00:24:44;101916.47;;;2.72;81.48
84639;BME280;74869;51.924;5.712;2024-03-08T00:27:10;101922.97;;;2.70;80.98
84639;BME280;74869;51.924;5.712;2024-03-08T00:29:36;101906.66;;;2.60;81.37
84639;BME280;74869;51.924;5.712;2024-03-08T00:32:04;101918.72;;;2.62;81.71
84639;BME280;74869;51.924;5.712;2024-03-08T00:34:29;101912.34;;;2.57;80.92
84639;BME280;74869;51.924;5.712;2024-03-08T00:36:54;101899.47;;;2.47;81.18
84639;BME280;74869;51.924;5.712;2024-03-08T00:39:20;101899.28;;;2.49;81.42
84639;BME280;74869;51.924;5.712;2024-03-08T00:41:46;101913.56;;;2.54;81.38
84639;BME280;74869;51.924;5.712;2024-03-08T00:44:11;101899.69;;;2.46;81.18
84639;BME280;74869;51.924;5.712;2024-03-08T00:46:37;101911.13;;;2.53;80.72
84639;BME280;74869;51.924;5.712;2024-03-08T00:49:03;101911.13;;;2.53;80.60
84639;BME280;74869;51.924;5.712;2024-03-08T00:51:28;101907.84;;;2.51;81.34
84639;BME280;74869;51.924;5.712;2024-03-08T00:53:54;101897.66;;;2.48;80.74
84639;BME280;74869;51.924;5.712;2024-03-08T00:56:19;101888.25;;;2.38;80.56
84639;BME280;74869;51.924;5.712;2024-03-08T00:58:45;101889.69;;;2.41;80.78
84639;BME280;74869;51.924;5.712;2024-03-08T01:01:10;101893.16;;;2.41;80.63
84639;BME280;74869;51.924;5.712;2024-03-08T01:03:36;101870.91;;;2.29;80.33
84639;BME280;74869;51.924;5.712;2024-03-08T01:06:01;101855.19;;;2.21;81.03
84639;BME280;74869;51.924;5.712;2024-03-08T01:08:27;101877.19;;;2.22;80.72
84639;BME280;74869;51.924;5.712;2024-03-08T01:10:53;101865.78;;;2.21;80.97
84639;BME280;74869;51.924;5.712;2024-03-08T01:13:18;101865.34;;;2.24;80.38
84639;BME280;74869;51.924;5.712;2024-03-08T01:15:44;101843.34;;;2.17;80.82
84639;BME280;74869;51.924;5.712;2024-03-08T01:18:10;101868.44;;;2.28;80.76
84639;BME280;74869;51.924;5.712;2024-03-08T01:20:35;101853.94;;;2.17;80.44
84639;BME280;74869;51.924;5.712;2024-03-08T01:23:01;101849.03;;;2.14;80.34
84639;BME280;74869;51.924;5.712;2024-03-08T01:25:26;101825.78;;;2.03;80.46
84639;BME280;74869;51.924;5.712;2024-03-08T01:27:52;101806.56;;;1.88;80.59
84639;BME280;74869;51.924;5.712;2024-03-08T01:30:19;101853.94;;;2.17;80.59
84639;BME280;74869;51.924;5.712;2024-03-08T01:32:44;101836.78;;;2.07;80.45
84639;BME280;74869;51.924;5.712;2024-03-08T01:35:10;101849.84;;;2.15;80.55
84639;BME280;74869;51.924;5.712;2024-03-08T01:37:35;101843.94;;;2.13;80.02
84639;BME280;74869;51.924;5.712;2024-03-08T01:40:01;101812.72;;;1.95;80.55
84639;BME280;74869;51.924;5.712;2024-03-08T01:42:28;101816.00;;;2.04;80.23
84639;BME280;74869;51.924;5.712;2024-03-08T01:44:53;101829.66;;;2.07;80.21
84639;BME280;74869;51.924;5.712;2024-03-08T01:47:19;101784.53;;;1.81;79.81
84639;BME280;74869;51.924;5.712;2024-03-08T01:49:48;101831.13;;;2.16;79.44
84639;BME280;74869;51.924;5.712;2024-03-08T01:52:15;101839.06;;;2.16;79.04
84639;BME280;74869;51.924;5.712;2024-03-08T01:54:40;101835.97;;;2.13;79.35
84639;BME280;74869;51.924;5.712;2024-03-08T01:57:06;101826.38;;;2.05;79.59
84639;BME280;74869;51.924;5.712;2024-03-08T01:59:32;101834.94;;;2.07;79.56
84639;BME280;74869;51.924;5.712;2024-03-08T02:02:00;101822.13;;;2.04;79.17
84639;BME280;74869;51.924;5.712;2024-03-08T02:04:27;101775.34;;;1.70;79.69
84639;BME280;74869;51.924;5.712;2024-03-08T02:06:53;101760.22;;;1.57;79.13
84639;BME280;74869;51.924;5.712;2024-03-08T02:09:18;101789.84;;;1.81;79.31
84639;BME280;74869;51.924;5.712;2024-03-08T02:11:45;101754.53;;;1.60;79.30
84639;BME280;74869;51.924;5.712;2024-03-08T02:14:10;101810.25;;;1.93;79.25
84639;BME280;74869;51.924;5.712;2024-03-08T02:16:36;101807.00;;;1.91;79.45
84639;BME280;74869;51.924;5.712;2024-03-08T02:19:03;101778.38;;;1.67;79.53
84639;BME280;74869;51.924;5.712;2024-03-08T02:21:28;101772.69;;;1.64;79.27
84639;BME280;74869;51.924;5.712;2024-03-08T02:23:55;101808.00;;;1.84;79.87
84639;BME280;74869;51.924;5.712;2024-03-08T02:26:20;101796.13;;;1.80;79.41
84639;BME280;74869;51.924;5.712;2024-03-08T02:28:46;101800.44;;;1.81;79.43
84639;BME280;74869;51.924;5.712;2024-03-08T02:31:12;101791.03;;;1.72;79.19
84639;BME280;74869;51.924;5.712;2024-03-08T02:33:38;101777.56;;;1.67;79.56
84639;BME280;74869;51.924;5.712;2024-03-08T02:36:03;101789.00;;;1.74;79.63
84639;BME280;74869;51.924;5.712;2024-03-08T02:38:29;101789.41;;;1.71;79.01
84639;BME280;74869;51.924;5.712;2024-03-08T02:40:54;101778.78;;;1.64;79.57
84639;BME280;74869;51.924;5.712;2024-03-08T02:43:21;101762.66;;;1.52;79.54
84639;BME280;74869;51.924;5.712;2024-03-08T02:45:50;101785.09;;;1.63;79.50
84639;BME280;74869;51.924;5.712;2024-03-08T02:48:15;101788.56;;;1.64;79.50
84639;BME280;74869;51.924;5.712;2024-03-08T02:50:44;101783.88;;;1.59;79.52
84639;BME280;74869;51.924;5.712;2024-03-08T02:53:10;101766.53;;;1.56;79.75
84639;BME280;74869;51.924;5.712;2024-03-08T02:55:39;101770.19;;;1.55;79.29
84639;BME280;74869;51.924;5.712;2024-03-08T02:58:07;101769.59;;;1.53;79.56
84639;BME280;74869;51.924;5.712;2024-03-08T03:00:38;101774.25;;;1.51;79.50
84639;BME280;74869;51.924;5.712;2024-03-08T03:03:04;101765.69;;;1.49;79.52
84639;BME280;74869;51.924;5.712;2024-03-08T03:05:30;101765.69;;;1.49;80.03
84639;BME280;74869;51.924;5.712;2024-03-08T03:07:55;101753.69;;;1.47;79.92
84639;BME280;74869;51.924;5.712;2024-03-08T03:10:21;101729.78;;;1.27;79.54
84639;BME280;74869;51.924;5.712;2024-03-08T03:12:47;101705.72;;;1.22;79.16
84639;BME280;74869;51.924;5.712;2024-03-08T03:15:14;101744.94;;;1.46;79.92
84639;BME280;74869;51.924;5.712;2024-03-08T03:17:40;101745.72;;;1.40;79.16
84639;BME280;74869;51.924;5.712;2024-03-08T03:20:08;101745.72;;;1.40;79.99
84639;BME280;74869;51.924;5.712;2024-03-08T03:22:39;101747.72;;;1.38;80.03
84639;BME280;74869;51.924;5.712;2024-03-08T03:25:07;101726.50;;;1.25;79.53
84639;BME280;74869;51.924;5.712;2024-03-08T03:27:32;101699.59;;;1.08;79.35
84639;BME280;74869;51.924;5.712;2024-03-08T03:29:58;101719.53;;;1.17;79.94
84639;BME280;74869;51.924;5.712;2024-03-08T03:32:44;101736.25;;;1.25;79.94
84639;BME280;74869;51.924;5.712;2024-03-08T03:35:12;101748.91;;;1.29;80.06
84639;BME280;74869;51.924;5.712;2024-03-08T03:37:37;101745.66;;;1.27;79.57
84639;BME280;74869;51.924;5.712;2024-03-08T03:40:05;101747.66;;;1.25;79.95
84639;BME280;74869;51.924;5.712;2024-03-08T03:42:31;101710.03;;;0.89;79.79
84639;BME280;74869;51.924;5.712;2024-03-08T03:44:56;101704.84;;;1.02;79.90
84639;BME280;74869;51.924;5.712;2024-03-08T03:47:21;101728.06;;;1.13;79.90
84639;BME280;74869;51.924;5.712;2024-03-08T03:49:47;101723.78;;;1.12;80.05
84639;BME280;74869;51.924;5.712;2024-03-08T03:52:12;101720.28;;;1.05;80.19
84639;BME280;74869;51.924;5.712;2024-03-08T03:54:37;101722.78;;;1.13;80.25
84639;BME280;74869;51.924;5.712;2024-03-08T03:57:03;101710.50;;;0.99;80.25
84639;BME280;74869;51.924;5.712;2024-03-08T03:59:29;101715.59;;;1.00;80.04
84639;BME280;74869;51.924;5.712;2024-03-08T04:01:54;101727.25;;;1.12;80.28
84639;BME280;74869;51.924;5.712;2024-03-08T04:04:23;101715.16;;;0.97;80.41
84639;BME280;74869;51.924;5.712;2024-03-08T04:06:49;101711.50;;;0.98;80.41
84639;BME280;74869;51.924;5.712;2024-03-08T04:09:16;101722.06;;;0.98;80.06
84639;BME280;74869;51.924;5.712;2024-03-08T04:11:44;101708.00;;;0.91;80.30
84639;BME280;74869;51.924;5.712;2024-03-08T04:14:09;101705.84;;;1.01;80.41
84639;BME280;74869;51.924;5.712;2024-03-08T04:16:35;101696.97;;;0.80;80.90
84639;BME280;74869;51.924;5.712;2024-03-08T04:19:01;101690.44;;;0.76;80.76
84639;BME280;74869;51.924;5.712;2024-03-08T04:21:30;101699.84;;;0.86;80.61
84639;BME280;74869;51.924;5.712;2024-03-08T04:23:55;101611.69;;;0.31;80.78
84639;BME280;74869;51.924;5.712;2024-03-08T04:26:21;101665.09;;;0.54;80.47
84639;BME280;74869;51.924;5.712;2024-03-08T04:28:46;101703.25;;;0.79;80.60
84639;BME280;74869;51.924;5.712;2024-03-08T04:31:12;101708.00;;;0.91;80.89
84639;BME280;74869;51.924;5.712;2024-03-08T04:33:37;101682.06;;;0.73;80.59
84639;BME280;74869;51.924;5.712;2024-03-08T04:36:04;101703.50;;;0.85;80.89
84639;BME280;74869;51.924;5.712;2024-03-08T04:38:29;101706.56;;;0.88;80.99
84639;BME280;74869;51.924;5.712;2024-03-08T04:40:56;101685.13;;;0.70;80.65
84639;BME280;74869;51.924;5.712;2024-03-08T04:43:21;101674.56;;;0.70;80.95
84639;BME280;74869;51.924;5.712;2024-03-08T04:45:47;101672.47;;;0.65;81.05
84639;BME280;74869;51.924;5.712;2024-03-08T04:48:13;101696.56;;;0.84;81.07
84639;BME280;74869;51.924;5.712;2024-03-08T04:50:39;101695.97;;;0.82;81.08
84639;BME280;74869;51.924;5.712;2024-03-08T04:53:05;101672.09;;;0.68;80.93
84639;BME280;74869;51.924;5.712;2024-03-08T04:55:33;101658.41;;;0.58;80.95
84639;BME280;74869;51.924;5.712;2024-03-08T04:57:59;101702.03;;;0.75;80.95
84639;BME280;74869;51.924;5.712;2024-03-08T05:00:24;101683.25;;;0.64;80.78
84639;BME280;74869;51.924;5.712;2024-03-08T05:02:50;101691.81;;;0.72;81.34
84639;BME280;74869;51.924;5.712;2024-03-08T05:05:18;101692.00;;;0.71;81.30
84639;BME280;74869;51.924;5.712;2024-03-08T05:07:44;101693.25;;;0.68;81.30
84639;BME280;74869;51.924;5.712;2024-03-08T05:10:11;101678.94;;;0.56;81.43
84639;BME280;74869;51.924;5.712;2024-03-08T05:12:36;101674.47;;;0.57;81.38
84639;BME280;74869;51.924;5.712;2024-03-08T05:15:04;101644.25;;;0.38;81.15
84639;BME280;74869;51.924;5.712;2024-03-08T05:17:30;101661.56;;;0.47;81.57
84639;BME280;74869;51.924;5.712;2024-03-08T05:19:55;101665.09;;;0.54;81.47
84639;BME280;74869;51.924;5.712;2024-03-08T05:22:21;101671.81;;;0.57;81.47
84639;BME280;74869;51.924;5.712;2024-03-08T05:24:46;101662.59;;;0.46;81.30
84639;BME280;74869;51.924;5.712;2024-03-08T05:27:11;101674.25;;;0.58;81.27
84639;BME280;74869;51.924;5.712;2024-03-08T05:29:38;101670.00;;;0.57;81.70
84639;BME280;74869;51.924;5.712;2024-03-08T05:32:03;101668.72;;;0.53;81.86
84639;BME280;74869;51.924;5.712;2024-03-08T05:34:29;101664.22;;;0.47;81.54
84639;BME280;74869;51.924;5.712;2024-03-08T05:36:55;101647.00;;;0.51;81.87
84639;BME280;74869;51.924;5.712;2024-03-08T05:39:20;101663.91;;;0.57;81.42
84639;BME280;74869;51.924;5.712;2024-03-08T05:41:46;101648.19;;;0.49;81.81
84639;BME280;74869;51.924;5.712;2024-03-08T05:44:12;101662.22;;;0.49;81.60
84639;BME280;74869;51.924;5.712;2024-03-08T05:46:38;101651.66;;;0.49;82.02
84639;BME280;74869;51.924;5.712;2024-03-08T05:49:05;101664.72;;;0.57;81.63
84639;BME280;74869;51.924;5.712;2024-03-08T05:51:34;101653.28;;;0.50;81.74
84639;BME280;74869;51.924;5.712;2024-03-08T05:54:04;101653.69;;;0.54;81.78
84639;BME280;74869;51.924;5.712;2024-03-08T05:56:31;101645.53;;;0.49;81.69
84639;BME280;74869;51.924;5.712;2024-03-08T05:58:56;101657.78;;;0.56;82.02
84639;BME280;74869;51.924;5.712;2024-03-08T06:01:23;101649.22;;;0.54;81.87
84639;BME280;74869;51.924;5.712;2024-03-08T06:03:49;101652.28;;;0.51;81.88
84639;BME280;74869;51.924;5.712;2024-03-08T06:06:14;101634.31;;;0.40;82.14
84639;BME280;74869;51.924;5.712;2024-03-08T06:08:40;101613.34;;;0.32;81.83
84639;BME280;74869;51.924;5.712;2024-03-08T06:11:08;101648.59;;;0.52;81.91
84639;BME280;74869;51.924;5.712;2024-03-08T06:13:33;101653.28;;;0.50;81.78
84639;BME280;74869;51.924;5.712;2024-03-08T06:15:59;101649.22;;;0.54;82.13
84639;BME280;74869;51.924;5.712;2024-03-08T06:18:25;101645.59;;;0.55;81.63
84639;BME280;74869;51.924;5.712;2024-03-08T06:20:51;101641.31;;;0.54;81.90
84639;BME280;74869;51.924;5.712;2024-03-08T06:23:16;101645.00;;;0.60;81.70
84639;BME280;74869;51.924;5.712;2024-03-08T06:25:44;101639.53;;;0.61;81.67
84639;BME280;74869;51.924;5.712;2024-03-08T06:28:09;101613.03;;;0.48;81.82
84639;BME280;74869;51.924;5.712;2024-03-08T06:30:34;101626.91;;;0.57;81.54
84639;BME280;74869;51.924;5.712;2024-03-08T06:33:00;101643.66;;;0.70;81.72
84639;BME280;74869;51.924;5.712;2024-03-08T06:35:25;101639.16;;;0.71;81.81
84639;BME280;74869;51.924;5.712;2024-03-08T06:37:50;101632.69;;;0.73;82.06
84639;BME280;74869;51.924;5.712;2024-03-08T06:40:16;101644.94;;;0.81;81.70
84639;BME280;74869;51.924;5.712;2024-03-08T06:42:42;101633.75;;;0.86;81.59
84639;BME280;74869;51.924;5.712;2024-03-08T06:45:08;101636.03;;;0.89;81.49
84639;BME280;74869;51.924;5.712;2024-03-08T06:47:35;101594.22;;;0.64;81.70
84639;BME280;74869;51.924;5.712;2024-03-08T06:50:00;101626.31;;;0.96;81.29
84639;BME280;74869;51.924;5.712;2024-03-08T06:52:26;101616.75;;;0.95;81.01
84639;BME280;74869;51.924;5.712;2024-03-08T06:54:51;101633.66;;;1.07;81.25
84639;BME280;74869;51.924;5.712;2024-03-08T06:57:18;101631.47;;;1.17;81.16
84639;BME280;74869;51.924;5.712;2024-03-08T06:59:43;101626.38;;;1.22;80.94
84639;BME280;74869;51.924;5.712;2024-03-08T07:02:09;101628.84;;;1.30;80.81
84639;BME280;74869;51.924;5.712;2024-03-08T07:04:35;101624.84;;;1.41;80.79
84639;BME280;74869;51.924;5.712;2024-03-08T07:07:04;101624.06;;;1.53;80.68
84639;BME280;74869;51.924;5.712;2024-03-08T07:09:29;101604.91;;;1.51;80.06
84639;BME280;74869;51.924;5.712;2024-03-08T07:11:55;101622.66;;;1.71;79.88
84639;BME280;74869;51.924;5.712;2024-03-08T07:14:23;101622.47;;;1.79;79.65
84639;BME280;74869;51.924;5.712;2024-03-08T07:16:50;101618.19;;;1.84;79.58
84639;BME280;74869;51.924;5.712;2024-03-08T07:19:16;101591.47;;;1.79;79.14
84639;BME280;74869;51.924;5.712;2024-03-08T07:21:45;101614.50;;;2.05;78.80
84639;BME280;74869;51.924;5.712;2024-03-08T07:24:11;101612.69;;;2.12;78.59
84639;BME280;74869;51.924;5.712;2024-03-08T07:26:42;101596.78;;;2.12;78.36
84639;BME280;74869;51.924;5.712;2024-03-08T07:29:07;101569.47;;;2.05;78.78
84639;BME280;74869;51.924;5.712;2024-03-08T07:31:33;101609.00;;;2.39;78.34
84639;BME280;74869;51.924;5.712;2024-03-08T07:34:07;101593.50;;;2.36;77.79
84639;BME280;74869;51.924;5.712;2024-03-08T07:36:33;101611.81;;;2.58;78.39
84639;BME280;74869;51.924;5.712;2024-03-08T07:39:00;101596.09;;;2.56;77.43
84639;BME280;74869;51.924;5.712;2024-03-08T07:41:25;101581.63;;;2.59;77.04
84639;BME280;74869;51.924;5.712;2024-03-08T07:43:51;101588.09;;;2.76;77.27
84639;BME280;74869;51.924;5.712;2024-03-08T07:46:17;101579.13;;;2.77;77.11
84639;BME280;74869;51.924;5.712;2024-03-08T07:48:43;101590.91;;;2.94;76.81
84639;BME280;74869;51.924;5.712;2024-03-08T07:51:10;101590.66;;;3.02;76.30
84639;BME280;74869;51.924;5.712;2024-03-08T07:53:37;101586.53;;;3.13;76.56
84639;BME280;74869;51.924;5.712;2024-03-08T07:56:03;101586.66;;;3.25;76.48
84639;BME280;74869;51.924;5.712;2024-03-08T07:58:30;101564.06;;;3.15;75.22
84639;BME280;74869;51.924;5.712;2024-03-08T08:00:56;101583.34;;;3.36;75.01
84639;BME280;74869;51.924;5.712;2024-03-08T08:03:22;101573.91;;;3.40;74.81
84639;BME280;74869;51.924;5.712;2024-03-08T08:05:47;101584.06;;;3.49;75.58
84639;BME280;74869;51.924;5.712;2024-03-08T08:08:14;101575.25;;;3.55;75.27
84639;BME280;74869;51.924;5.712;2024-03-08T08:10:40;101565.81;;;3.59;74.71
84639;BME280;74869;51.924;5.712;2024-03-08T08:13:05;101557.78;;;3.66;74.44
84639;BME280;74869;51.924;5.712;2024-03-08T08:15:31;101568.31;;;3.79;74.07
84639;BME280;74869;51.924;5.712;2024-03-08T08:17:59;101573.56;;;3.86;74.21
84639;BME280;74869;51.924;5.712;2024-03-08T08:20:25;101556.56;;;3.93;73.22
84639;BME280;74869;51.924;5.712;2024-03-08T08:22:51;101560.28;;;4.11;73.32
84639;BME280;74869;51.924;5.712;2024-03-08T08:25:16;101547.38;;;4.14;73.58
84639;BME280;74869;51.924;5.712;2024-03-08T08:27:45;101553.81;;;4.25;72.48
84639;BME280;74869;51.924;5.712;2024-03-08T08:30:12;101534.47;;;4.18;72.73
84639;BME280;74869;51.924;5.712;2024-03-08T08:32:38;101545.69;;;4.38;72.78
84639;BME280;74869;51.924;5.712;2024-03-08T08:35:07;101542.69;;;4.53;72.56
84639;BME280;74869;51.924;5.712;2024-03-08T08:37:34;101533.44;;;4.73;72.03
84639;BME280;74869;51.924;5.712;2024-03-08T08:40:02;101530.38;;;4.88;71.77
84639;BME280;74869;51.924;5.712;2024-03-08T08:42:33;101511.69;;;4.76;71.11
84639;BME280;74869;51.924;5.712;2024-03-08T08:44:59;101536.41;;;4.95;71.61
84639;BME280;74869;51.924;5.712;2024-03-08T08:47:24;101518.00;;;4.94;70.96
84639;BME280;74869;51.924;5.712;2024-03-08T08:49:49;101517.03;;;5.06;70.71
84639;BME280;74869;51.924;5.712;2024-03-08T08:52:16;101524.16;;;5.24;70.68
84639;BME280;74869;51.924;5.712;2024-03-08T08:54:42;101512.69;;;5.23;70.33
84639;BME280;74869;51.924;5.712;2024-03-08T08:57:07;101493.03;;;5.24;70.63
84639;BME280;74869;51.924;5.712;2024-03-08T08:59:36;101515.19;;;5.48;70.24
84639;BME280;74869;51.924;5.712;2024-03-08T09:02:02;101509.75;;;5.67;69.70
84639;BME280;74869;51.924;5.712;2024-03-08T09:04:30;101499.94;;;5.79;69.11
84639;BME280;74869;51.924;5.712;2024-03-08T09:06:56;101499.03;;;5.96;69.54
84639;BME280;74869;51.924;5.712;2024-03-08T09:09:22;101488.72;;;6.00;68.75
84639;BME280;74869;51.924;5.712;2024-03-08T09:11:48;101495.97;;;6.28;68.82
84639;BME280;74869;51.924;5.712;2024-03-08T09:14:14;101484.81;;;6.42;68.25
84639;BME280;74869;51.924;5.712;2024-03-08T09:16:40;101485.63;;;6.43;67.71
84639;BME280;74869;51.924;5.712;2024-03-08T09:19:06;101465.78;;;6.51;67.80
84639;BME280;74869;51.924;5.712;2024-03-08T09:21:32;101479.63;;;6.76;67.23
84639;BME280;74869;51.924;5.712;2024-03-08T09:23:58;101454.19;;;6.73;66.97
84639;BME280;74869;51.924;5.712;2024-03-08T09:26:24;101477.41;;;7.01;66.92
84639;BME280;74869;51.924;5.712;2024-03-08T09:28:49;101479.28;;;7.17;66.70
84639;BME280;74869;51.924;5.712;2024-03-08T09:31:14;101471.31;;;7.34;66.16
84639;BME280;74869;51.924;5.712;2024-03-08T09:33:42;101466.03;;;7.39;65.37
84639;BME280;74869;51.924;5.712;2024-03-08T09:36:07;101457.88;;;7.46;65.00
84639;BME280;74869;51.924;5.712;2024-03-08T09:38:34;101461.66;;;7.67;64.76
84639;BME280;74869;51.924;5.712;2024-03-08T09:41:00;101394.22;;;7.43;64.87
84639;BME280;74869;51.924;5.712;2024-03-08T09:43:27;101417.09;;;7.72;64.62
84639;BME280;74869;51.924;5.712;2024-03-08T09:45:53;101438.66;;;8.04;64.53
84639;BME280;74869;51.924;5.712;2024-03-08T09:48:21;101407.56;;;7.98;63.80
84639;BME280;74869;51.924;5.712;2024-03-08T09:50:47;101430.22;;;8.34;63.91
84639;BME280;74869;51.924;5.712;2024-03-08T09:53:13;101435.66;;;8.66;64.19
84639;BME280;74869;51.924;5.712;2024-03-08T09:55:39;101419.00;;;8.85;63.28
84639;BME280;74869;51.924;5.712;2024-03-08T09:58:14;101408.81;;;8.82;63.02
84639;BME280;74869;51.924;5.712;2024-03-08T10:01:07;101416.97;;;8.98;62.35
84639;BME280;74869;51.924;5.712;2024-03-08T10:03:32;101369.19;;;8.84;61.80
84639;BME280;74869;51.924;5.712;2024-03-08T10:05:58;101395.66;;;9.08;61.16
84639;BME280;74869;51.924;5.712;2024-03-08T10:08:27;101376.63;;;9.09;60.50
84639;BME280;74869;51.924;5.712;2024-03-08T10:10:55;101352.63;;;9.24;61.32
84639;BME280;74869;51.924;5.712;2024-03-08T10:13:20;101388.50;;;9.60;60.66
84639;BME280;74869;51.924;5.712;2024-03-08T10:15:46;101389.59;;;9.64;59.21
84639;BME280;74869;51.924;5.712;2024-03-08T10:18:11;101368.63;;;9.51;59.44
84639;BME280;74869;51.924;5.712;2024-03-08T10:20:36;101381.59;;;9.70;60.41
84639;BME280;74869;51.924;5.712;2024-03-08T10:23:03;101370.34;;;9.73;59.42
84639;BME280;74869;51.924;5.712;2024-03-08T10:25:30;101351.38;;;9.84;59.36
84639;BME280;74869;51.924;5.712;2024-03-08T10:27:56;101370.72;;;9.96;58.79
84639;BME280;74869;51.924;5.712;2024-03-08T10:30:21;101366.75;;;10.04;58.20
84639;BME280;74869;51.924;5.712;2024-03-08T10:32:47;101338.81;;;10.00;58.91
84639;BME280;74869;51.924;5.712;2024-03-08T10:35:13;101364.19;;;10.39;57.86
84639;BME280;74869;51.924;5.712;2024-03-08T10:37:50;101347.53;;;10.32;57.07
84639;BME280;74869;51.924;5.712;2024-03-08T10:40:24;101322.84;;;10.40;57.74
84639;BME280;74869;51.924;5.712;2024-03-08T10:42:57;101324.50;;;10.62;56.67
84639;BME280;74869;51.924;5.712;2024-03-08T10:45:36;101331.50;;;10.88;56.99
84639;BME280;74869;51.924;5.712;2024-03-08T10:48:18;101322.06;;;11.01;56.21
84639;BME280;74869;51.924;5.712;2024-03-08T10:50:49;101319.63;;;11.19;56.16
84639;BME280;74869;51.924;5.712;2024-03-08T10:53:17;101314.22;;;11.30;56.20
84639;BME280;74869;51.924;5.712;2024-03-08T10:55:44;101273.09;;;11.29;55.40
84639;BME280;74869;51.924;5.712;2024-03-08T10:58:10;101292.09;;;11.53;54.72
84639;BME280;74869;51.924;5.712;2024-03-08T11:00:36;101261.50;;;11.44;54.11
84639;BME280;74869;51.924;5.712;2024-03-08T11:03:04;101266.81;;;11.54;53.54
84639;BME280;74869;51.924;5.712;2024-03-08T11:05:37;101271.56;;;11.82;53.36
84639;BME280;74869;51.924;5.712;2024-03-08T11:08:15;101252.22;;;11.80;54.05
84639;BME280;74869;51.924;5.712;2024-03-08T11:10:48;101260.91;;;12.11;53.88
84639;BME280;74869;51.924;5.712;2024-03-08T11:13:42;101254.88;;;12.24;52.17
84639;BME280;74869;51.924;5.712;2024-03-08T11:16:11;101238.59;;;12.05;51.99
84639;BME280;74869;51.924;5.712;2024-03-08T11:18:37;101262.25;;;12.14;51.96
84639;BME280;74869;51.924;5.712;2024-03-08T11:21:08;101227.88;;;12.00;52.23
84639;BME280;74869;51.924;5.712;2024-03-08T11:23:40;101258.97;;;12.17;50.52
84639;BME280;74869;51.924;5.712;2024-03-08T11:26:20;101256.28;;;12.22;51.96
84639;BME280;74869;51.924;5.712;2024-03-08T11:28:46;101255.06;;;12.38;51.19
84639;BME280;74869;51.924;5.712;2024-03-08T11:33:39;101234.66;;;12.32;50.49
84639;BME280;74869;51.924;5.712;2024-03-08T11:36:12;101233.91;;;12.55;50.70
84639;BME280;74869;51.924;5.712;2024-03-08T11:38:42;101226.72;;;12.74;49.79
84639;BME280;74869;51.924;5.712;2024-03-08T11:41:09;101209.91;;;12.59;49.54
84639;BME280;74869;51.924;5.712;2024-03-08T11:43:38;101227.78;;;12.78;50.12
84639;BME280;74869;51.924;5.712;2024-03-08T11:46:10;101201.84;;;12.82;49.00
84639;BME280;74869;51.924;5.712;2024-03-08T11:48:38;101198.09;;;12.83;49.08
84639;BME280;74869;51.924;5.712;2024-03-08T11:51:03;101206.81;;;12.99;49.13
84639;BME280;74869;51.924;5.712;2024-03-08T11:53:30;101215.84;;;13.13;48.72
84639;BME280;74869;51.924;5.712;2024-03-08T11:56:11;101204.81;;;13.10;48.04
84639;BME280;74869;51.924;5.712;2024-03-08T11:58:37;101192.91;;;13.16;47.74
84639;BME280;74869;51.924;5.712;2024-03-08T12:01:07;101177.44;;;12.98;47.06
84639;BME280;74869;51.924;5.712;2024-03-08T12:03:40;101172.56;;;13.00;47.06
84639;BME280;74869;51.924;5.712;2024-03-08T12:06:08;101174.28;;;12.91;47.39
84639;BME280;74869;51.924;5.712;2024-03-08T12:08:35;101153.47;;;12.72;47.22
84639;BME280;74869;51.924;5.712;2024-03-08T12:11:00;101182.84;;;12.98;47.32
84639;BME280;74869;51.924;5.712;2024-03-08T12:13:30;101194.19;;;12.95;47.08
84639;BME280;74869;51.924;5.712;2024-03-08T12:16:00;101194.72;;;12.97;46.91
84639;BME280;74869;51.924;5.712;2024-03-08T12:18:33;101152.41;;;12.73;46.69
84639;BME280;74869;51.924;5.712;2024-03-08T12:21:06;101175.78;;;13.02;47.00
84639;BME280;74869;51.924;5.712;2024-03-08T12:23:33;101164.84;;;13.17;47.45
84639;BME280;74869;51.924;5.712;2024-03-08T12:26:09;101170.56;;;13.34;46.33
84639;BME280;74869;51.924;5.712;2024-03-08T12:28:38;101161.72;;;13.29;46.11
84639;BME280;74869;51.924;5.712;2024-03-08T12:31:03;101169.84;;;13.47;46.98
84639;BME280;74869;51.924;5.712;2024-03-08T12:33:36;101155.72;;;13.55;45.96
84639;BME280;74869;51.924;5.712;2024-03-08T12:36:01;101121.44;;;13.37;45.67
84639;BME280;74869;51.924;5.712;2024-03-08T12:38:30;101161.59;;;13.57;46.36
84639;BME280;74869;51.924;5.712;2024-03-08T12:41:00;101147.19;;;13.67;46.25
84639;BME280;74869;51.924;5.712;2024-03-08T12:43:26;101145.81;;;13.70;45.52
84639;BME280;74869;51.924;5.712;2024-03-08T12:45:51;101136.81;;;13.55;45.17
84639;BME280;74869;51.924;5.712;2024-03-08T12:48:17;101115.88;;;13.29;45.02
84639;BME280;74869;51.924;5.712;2024-03-08T12:50:44;101115.38;;;13.45;45.61
84639;BME280;74869;51.924;5.712;2024-03-08T12:53:10;101125.22;;;13.36;45.61
84639;BME280;74869;51.924;5.712;2024-03-08T12:55:36;101118.75;;;13.37;45.45
84639;BME280;74869;51.924;5.712;2024-03-08T12:58:01;101120.28;;;13.43;45.62